Time,TemperatureF,DewpointF,PressureIn,WindDirection,WindDirectionDegrees,WindSpeedMPH,WindSpeedGustMPH,Humidity,HourlyPrecipIn,Conditions,Clouds,dailyrainin,SolarRadiationWatts/m^2,SoftwareType,DateUTC
2013-03-19 00:03:00,50.8,47.4,30.04,East,94,4.6,4.6,88,0.00,,SKC,0.00,0.0,WeatherDisplay:10.37,2013-03-19 07:03:00,
2013-03-19 00:08:00,50.8,47.4,30.02,East,82,4.6,4.6,88,0.00,,SKC,0.00,0.0,WeatherDisplay:10.37,2013-03-19 07:08:00,
2013-03-19 00:13:00,50.6,47.2,30.02,East,94,3.5,3.5,88,0.00,,SKC,0.00,0.0,WeatherDisplay:10.37,2013-03-19 07:13:00,
2013-03-19 00:18:00,50.6,47.2,30.02,East,90,4.6,4.6,88,0.00,,SKC,0.00,0.0,WeatherDisplay:10.37,2013-03-19 07:18:00,
2013-03-19 00:23:00,50.6,47.2,30.02,ESE,112,6.0,6.0,88,0.00,,SKC,0.00,0.0,WeatherDisplay:10.37,2013-03-19 07:23:00,
2013-03-19 00:28:00,50.5,47.1,30.02,East,90,4.6,4.6,88,0.00,,SKC,0.00,0.0,WeatherDisplay:10.37,2013-03-19 07:28:00,
2013-03-19 00:33:00,50.6,47.2,30.02,East,99,7.0,7.0,88,0.00,,SKC,0.00,0.0,WeatherDisplay:10.37,2013-03-19 07:33:00,
2013-03-19 00:38:00,50.6,47.2,30.02,East,84,6.9,6.9,88,0.00,,SKC,0.00,0.0,WeatherDisplay:10.37,2013-03-19 07:38:00,
2013-03-19 00:43:00,50.6,47.5,30.02,East,89,2.3,2.3,89,0.00,,SKC,0.00,0.0,WeatherDisplay:10.37,2013-03-19 07:43:00,
2013-03-19 00:48:00,50.5,47.4,30.02,ESE,105,4.0,4.0,89,0.00,,SKC,0.00,0.0,WeatherDisplay:10.37,2013-03-19 07:48:00,
2013-03-19 00:53:00,50.4,47.3,30.02,ESE,113,4.6,4.6,89,0.00,,SKC,0.00,0.0,WeatherDisplay:10.37,2013-03-19 07:53:00,
2013-03-19 00:58:00,50.4,47.3,30.02,ESE,113,2.3,2.3,89,0.00,,SKC,0.00,0.0,WeatherDisplay:10.37,2013-03-19 07:58:00,
2013-03-19 01:03:00,50.4,47.3,30.02,East,95,5.0,5.0,89,0.00,,SKC,0.00,0.0,WeatherDisplay:10.37,2013-03-19 08:03:00,
2013-03-19 01:08:00,50.5,47.4,30.01,ESE,112,5.8,5.8,89,0.00,,SKC,0.00,0.0,WeatherDisplay:10.37,2013-03-19 08:08:00,
2013-03-19 01:13:00,50.5,47.4,30.01,ESE,113,2.3,2.3,89,0.00,,SKC,0.00,0.0,WeatherDisplay:10.37,2013-03-19 08:13:00,
2013-03-19 01:18:00,50.4,47.3,30.01,ESE,113,3.5,3.5,89,0.00,,SKC,0.00,0.0,WeatherDisplay:10.37,2013-03-19 08:18:00,
2013-03-19 01:23:00,50.3,47.2,30.02,ESE,113,1.2,1.2,89,0.00,,SKC,0.00,0.0,WeatherDisplay:10.37,2013-03-19 08:23:00,
2013-03-19 01:28:00,50.2,47.1,30.02,ESE,111,2.3,2.3,89,0.00,,SKC,0.00,0.0,WeatherDisplay:10.37,2013-03-19 08:28:00,
2013-03-19 01:33:00,50.1,47.0,30.02,ESE,111,2.3,2.3,89,0.00,,SKC,0.00,0.0,WeatherDisplay:10.37,2013-03-19 08:33:00,
2013-03-19 01:38:00,50.0,46.9,30.02,ESE,111,1.0,1.0,89,0.00,,SKC,0.00,0.0,WeatherDisplay:10.37,2013-03-19 08:38:00,
2013-03-19 01:43:00,49.9,46.8,30.02,ESE,111,1.2,1.2,89,0.00,,SKC,0.00,0.0,WeatherDisplay:10.37,2013-03-19 08:43:00,
2013-03-19 01:48:00,49.6,46.5,30.02,ESE,111,1.0,1.0,89,0.00,,SKC,0.00,0.0,WeatherDisplay:10.37,2013-03-19 08:48:00,
2013-03-19 01:53:00,49.4,46.3,30.01,ESE,111,2.3,2.3,89,0.00,,SKC,0.00,0.0,WeatherDisplay:10.37,2013-03-19 08:53:00,
2013-03-19 01:58:00,49.1,46.0,30.01,ESE,109,3.5,3.5,89,0.00,,SKC,0.00,0.0,WeatherDisplay:10.37,2013-03-19 08:58:00,
2013-03-19 02:03:00,48.9,45.8,30.01,East,94,4.0,4.0,89,0.00,,SKC,0.00,0.0,WeatherDisplay:10.37,2013-03-19 09:03:00,
2013-03-19 02:08:00,48.8,45.7,30.01,ENE,73,3.5,3.5,89,0.00,,SKC,0.00,0.0,WeatherDisplay:10.37,2013-03-19 09:08:00,
2013-03-19 02:13:00,48.7,45.9,30.01,NNE,17,3.5,3.5,90,0.00,,SKC,0.00,0.0,WeatherDisplay:10.37,2013-03-19 09:13:00,
2013-03-19 02:18:00,48.5,45.7,30.01,NNE,15,3.5,3.5,90,0.00,,SKC,0.00,0.0,WeatherDisplay:10.37,2013-03-19 09:18:00,
2013-03-19 02:23:00,48.4,45.6,30.01,NNE,15,3.5,3.5,90,0.00,,SKC,0.00,0.0,WeatherDisplay:10.37,2013-03-19 09:23:00,
2013-03-19 02:28:00,48.3,45.5,30.01,NNE,15,1.2,1.2,90,0.00,,SKC,0.00,0.0,WeatherDisplay:10.37,2013-03-19 09:28:00,
2013-03-19 02:33:00,48.2,45.4,30.01,NNE,15,2.3,2.3,90,0.00,,SKC,0.00,0.0,WeatherDisplay:10.37,2013-03-19 09:33:00,
2013-03-19 02:38:00,48.2,45.4,30.01,NNE,14,3.5,3.5,90,0.00,,SKC,0.00,0.0,WeatherDisplay:10.37,2013-03-19 09:38:00,
2013-03-19 02:43:00,48.1,45.3,30.01,NNE,15,2.3,2.3,90,0.00,,SKC,0.00,0.0,WeatherDisplay:10.37,2013-03-19 09:43:00,
2013-03-19 02:48:00,48.1,45.3,30.01,NNE,15,3.5,3.5,90,0.00,,SKC,0.00,0.0,WeatherDisplay:10.37,2013-03-19 09:48:00,
2013-03-19 02:53:00,48.1,45.3,30.01,NNE,15,3.5,3.5,90,0.00,,SKC,0.00,0.0,WeatherDisplay:10.37,2013-03-19 09:53:00,
2013-03-19 02:58:00,48.1,45.3,30.01,NNE,15,3.5,3.5,90,0.00,,SKC,0.00,0.0,WeatherDisplay:10.37,2013-03-19 09:58:00,
2013-03-19 03:03:00,48.1,45.3,30.01,NNE,15,1.2,1.2,90,0.00,,SKC,0.00,0.0,WeatherDisplay:10.37,2013-03-19 10:03:00,
2013-03-19 03:08:00,48.0,45.2,30.00,NNE,14,1.2,1.2,90,0.00,,SKC,0.00,0.0,WeatherDisplay:10.37,2013-03-19 10:08:00,
2013-03-19 03:13:00,47.9,45.1,30.00,NNE,15,1.2,0.0,90,0.00,,SKC,0.00,0.0,WeatherDisplay:10.37,2013-03-19 10:13:00,
2013-03-19 03:18:00,47.9,45.1,30.00,NNE,15,2.3,2.3,90,0.00,,SKC,0.00,0.0,WeatherDisplay:10.37,2013-03-19 10:18:00,
2013-03-19 03:23:00,47.9,45.1,30.00,NNE,14,3.5,3.5,90,0.00,,SKC,0.00,0.0,WeatherDisplay:10.37,2013-03-19 10:23:00,
2013-03-19 03:28:00,48.0,45.2,30.00,NNE,15,3.5,3.5,90,0.00,,SKC,0.00,0.0,WeatherDisplay:10.37,2013-03-19 10:28:00,
2013-03-19 03:33:00,48.2,45.4,30.00,NNE,15,3.5,3.5,90,0.00,,SKC,0.00,0.0,WeatherDisplay:10.37,2013-03-19 10:33:00,
2013-03-19 03:38:00,48.3,45.5,30.00,NNE,14,3.5,3.5,90,0.00,,SKC,0.00,0.0,WeatherDisplay:10.37,2013-03-19 10:38:00,
2013-03-19 03:43:00,48.4,45.6,30.00,NNE,14,3.5,3.5,90,0.00,,SKC,0.00,0.0,WeatherDisplay:10.37,2013-03-19 10:43:00,
2013-03-19 03:48:00,48.4,45.6,30.00,NNE,14,3.5,3.5,90,0.00,,SKC,0.00,0.0,WeatherDisplay:10.37,2013-03-19 10:48:00,
2013-03-19 03:53:00,48.3,45.5,29.99,NNE,14,3.5,3.5,90,0.00,,SKC,0.00,0.0,WeatherDisplay:10.37,2013-03-19 10:53:00,
2013-03-19 03:58:00,48.3,45.5,29.99,NNE,13,4.6,4.6,90,0.00,,SKC,0.00,0.0,WeatherDisplay:10.37,2013-03-19 10:58:00,
2013-03-19 04:03:00,48.2,45.4,29.99,North,11,3.5,3.5,90,0.00,,SKC,0.00,0.0,WeatherDisplay:10.37,2013-03-19 11:03:00,
2013-03-19 04:08:00,48.0,44.9,29.98,NE,36,4.0,4.0,89,0.00,,SKC,0.00,0.0,WeatherDisplay:10.37,2013-03-19 11:08:00,
2013-03-19 04:13:00,47.9,44.8,29.98,NNE,23,4.6,4.6,89,0.00,,SKC,0.00,0.0,WeatherDisplay:10.37,2013-03-19 11:13:00,
2013-03-19 04:18:00,47.9,44.8,29.98,North,5,3.5,3.5,89,0.00,,SKC,0.00,0.0,WeatherDisplay:10.37,2013-03-19 11:18:00,
2013-03-19 04:23:00,47.9,44.8,29.98,NNE,32,3.5,3.5,89,0.00,,SKC,0.00,0.0,WeatherDisplay:10.37,2013-03-19 11:23:00,
2013-03-19 04:28:00,47.9,44.8,29.98,NE,53,3.5,3.5,89,0.00,,SKC,0.00,0.0,WeatherDisplay:10.37,2013-03-19 11:28:00,
2013-03-19 04:33:00,47.9,44.5,29.98,NE,41,3.5,3.5,88,0.00,,SKC,0.00,0.0,WeatherDisplay:10.37,2013-03-19 11:33:00,
2013-03-19 04:38:00,48.0,44.6,29.98,NE,40,3.5,3.5,88,0.00,,SKC,0.00,0.0,WeatherDisplay:10.37,2013-03-19 11:38:00,
2013-03-19 04:44:00,48.0,44.6,29.98,NE,40,2.3,2.3,88,0.00,,SKC,0.00,0.0,WeatherDisplay:10.37,2013-03-19 11:44:00,
2013-03-19 04:49:00,47.9,44.2,29.98,NE,40,1.2,1.2,87,0.00,,SKC,0.00,0.0,WeatherDisplay:10.37,2013-03-19 11:49:00,
2013-03-19 04:54:00,47.9,44.2,29.98,NE,40,2.3,2.3,87,0.00,,SKC,0.00,0.0,WeatherDisplay:10.37,2013-03-19 11:54:00,
2013-03-19 04:59:00,47.9,44.2,29.98,NE,40,2.3,2.3,87,0.00,,SKC,0.00,0.0,WeatherDisplay:10.37,2013-03-19 11:59:00,
2013-03-19 05:04:00,47.8,44.1,29.98,NE,40,3.5,3.5,87,0.00,,SKC,0.00,0.0,WeatherDisplay:10.37,2013-03-19 12:04:00,
2013-03-19 05:09:00,47.7,44.0,29.98,NE,40,3.5,3.5,87,0.00,,SKC,0.00,0.0,WeatherDisplay:10.37,2013-03-19 12:09:00,
2013-03-19 05:14:00,47.5,43.8,29.98,NE,40,1.2,1.2,87,0.00,,SKC,0.00,0.0,WeatherDisplay:10.37,2013-03-19 12:14:00,
2013-03-19 05:19:00,47.4,44.0,29.98,NE,40,0.0,0.0,88,0.00,,SKC,0.00,0.0,WeatherDisplay:10.37,2013-03-19 12:19:00,
2013-03-19 05:24:00,47.4,44.0,29.98,NE,40,2.3,2.3,88,0.00,,SKC,0.00,0.0,WeatherDisplay:10.37,2013-03-19 12:24:00,
2013-03-19 05:29:00,47.2,43.8,29.98,NE,40,3.5,3.5,88,0.00,,SKC,0.00,0.0,WeatherDisplay:10.37,2013-03-19 12:29:00,
2013-03-19 05:34:00,47.0,43.6,29.98,NE,40,1.2,1.2,88,0.00,,SKC,0.00,0.0,WeatherDisplay:10.37,2013-03-19 12:34:00,
2013-03-19 05:39:00,46.9,43.5,29.99,NE,40,1.2,1.2,88,0.00,,SKC,0.00,0.0,WeatherDisplay:10.37,2013-03-19 12:39:00,
2013-03-19 05:44:00,46.9,43.5,29.99,NE,40,1.2,0.0,88,0.00,,SKC,0.00,0.0,WeatherDisplay:10.37,2013-03-19 12:44:00,
2013-03-19 05:49:00,46.8,43.4,29.99,NE,40,1.2,1.2,88,0.00,,SKC,0.00,0.0,WeatherDisplay:10.37,2013-03-19 12:49:00,
2013-03-19 05:54:00,46.7,43.3,29.99,NE,40,1.2,0.0,88,0.00,,SKC,0.00,0.0,WeatherDisplay:10.37,2013-03-19 12:54:00,
2013-03-19 05:59:00,46.6,43.5,29.99,NE,40,1.2,1.2,89,0.00,,SKC,0.00,0.0,WeatherDisplay:10.37,2013-03-19 12:59:00,
2013-03-19 06:04:00,46.4,43.0,29.99,NE,40,2.3,2.3,88,0.00,,SKC,0.00,0.0,WeatherDisplay:10.37,2013-03-19 13:04:00,
2013-03-19 06:09:00,46.3,42.9,29.99,NE,40,3.5,3.5,88,0.00,,SKC,0.00,0.0,WeatherDisplay:10.37,2013-03-19 13:09:00,
2013-03-19 06:14:00,46.2,42.8,29.99,NE,40,1.2,1.2,88,0.00,,SKC,0.00,0.0,WeatherDisplay:10.37,2013-03-19 13:14:00,
2013-03-19 06:19:00,46.2,42.8,29.99,NE,40,1.2,1.2,88,0.00,,SKC,0.00,0.0,WeatherDisplay:10.37,2013-03-19 13:19:00,
2013-03-19 06:24:00,46.1,42.7,29.99,NE,40,0.0,0.0,88,0.00,,SKC,0.00,0.0,WeatherDisplay:10.37,2013-03-19 13:24:00,
2013-03-19 06:29:00,46.1,42.7,29.99,NE,40,1.2,1.2,88,0.00,,SKC,0.00,0.0,WeatherDisplay:10.37,2013-03-19 13:29:00,
2013-03-19 06:34:00,46.1,42.7,29.99,NE,40,2.3,2.3,88,0.00,,SKC,0.00,0.0,WeatherDisplay:10.37,2013-03-19 13:34:00,
2013-03-19 06:39:00,46.1,42.7,30.00,NE,40,2.3,2.3,88,0.00,,SKC,0.00,0.0,WeatherDisplay:10.37,2013-03-19 13:39:00,
2013-03-19 06:44:00,45.9,42.5,30.00,NE,40,3.5,3.5,88,0.00,,SKC,0.00,0.0,WeatherDisplay:10.37,2013-03-19 13:44:00,
2013-03-19 06:49:00,45.8,42.4,30.00,NE,40,2.3,2.3,88,0.00,,SKC,0.00,0.0,WeatherDisplay:10.37,2013-03-19 13:49:00,
2013-03-19 06:54:00,45.6,42.5,30.00,NE,40,2.3,2.3,89,0.00,,SKC,0.00,0.0,WeatherDisplay:10.37,2013-03-19 13:54:00,
2013-03-19 06:59:00,45.4,42.3,30.00,NE,40,2.3,2.3,89,0.00,,SKC,0.00,0.0,WeatherDisplay:10.37,2013-03-19 13:59:00,
2013-03-19 07:04:00,45.4,42.3,30.00,NE,40,2.3,2.3,89,0.00,OVC,SKC,0.00,0.0,WeatherDisplay:10.37,2013-03-19 14:04:00,
2013-03-19 07:09:00,45.3,42.2,30.01,NE,40,3.5,3.5,89,0.00,OVC,SKC,0.00,0.0,WeatherDisplay:10.37,2013-03-19 14:09:00,
2013-03-19 07:14:00,45.2,42.2,30.01,NE,40,3.0,3.0,89,0.00,OVC,SKC,0.00,0.0,WeatherDisplay:10.37,2013-03-19 14:14:00,
2013-03-19 07:19:00,45.2,42.2,30.01,NE,40,3.5,3.5,89,0.00,OVC,SKC,0.00,9.0,WeatherDisplay:10.37,2013-03-19 14:19:00,
2013-03-19 07:24:00,45.2,42.2,30.01,NE,40,3.5,3.5,89,0.00,OVC,SKC,0.00,12.0,WeatherDisplay:10.37,2013-03-19 14:24:00,
2013-03-19 07:29:00,45.2,41.9,30.01,NE,40,1.2,0.0,88,0.00,OVC,SKC,0.00,18.0,WeatherDisplay:10.37,2013-03-19 14:29:00,
2013-03-19 07:34:00,45.4,42.1,30.01,NE,40,2.3,2.3,88,0.00,OVC,SKC,0.00,25.0,WeatherDisplay:10.37,2013-03-19 14:34:00,
2013-03-19 07:39:00,45.6,42.3,30.01,NE,40,2.3,2.3,88,0.00,OVC,SKC,0.00,35.0,WeatherDisplay:10.37,2013-03-19 14:39:00,
2013-03-19 07:44:00,45.8,42.2,30.01,NE,40,2.3,2.3,87,0.00,OVC,SKC,0.00,42.0,WeatherDisplay:10.37,2013-03-19 14:44:00,
2013-03-19 07:49:00,45.9,42.2,30.01,NE,40,3.5,3.5,87,0.00,OVC,SKC,0.00,51.0,WeatherDisplay:10.37,2013-03-19 14:49:00,
2013-03-19 07:54:00,45.9,42.2,30.02,NE,40,2.3,2.3,87,0.00,OVC,SKC,0.00,60.0,WeatherDisplay:10.37,2013-03-19 14:54:00,
2013-03-19 07:59:00,46.1,42.4,30.02,NE,40,2.3,2.3,87,0.00,OVC,SKC,0.00,67.0,WeatherDisplay:10.37,2013-03-19 14:59:00,
2013-03-19 08:04:00,46.2,42.5,30.02,NE,40,2.3,2.3,87,0.00,OVC,SKC,0.00,86.0,WeatherDisplay:10.37,2013-03-19 15:04:00,
2013-03-19 08:09:00,46.3,42.3,30.02,NE,40,3.5,3.5,86,0.00,OVC,SKC,0.00,104.0,WeatherDisplay:10.37,2013-03-19 15:09:00,
2013-03-19 08:14:00,46.6,42.6,30.02,NE,40,3.5,3.5,86,0.00,OVC,SKC,0.00,116.0,WeatherDisplay:10.37,2013-03-19 15:14:00,
2013-03-19 08:19:00,47.0,42.7,30.02,NE,40,2.3,2.3,85,0.00,OVC,SKC,0.00,130.0,WeatherDisplay:10.37,2013-03-19 15:19:00,
2013-03-19 08:24:00,47.5,42.9,30.02,NE,40,3.5,3.5,84,0.00,OVC,SKC,0.00,141.0,WeatherDisplay:10.37,2013-03-19 15:24:00,
2013-03-19 08:29:00,48.0,43.4,30.02,NE,40,1.2,1.2,84,0.00,OVC,SKC,0.00,167.0,WeatherDisplay:10.37,2013-03-19 15:29:00,
2013-03-19 08:34:00,48.6,43.7,30.02,NE,40,1.2,1.2,83,0.00,OVC,SKC,0.00,156.0,WeatherDisplay:10.37,2013-03-19 15:34:00,
2013-03-19 08:39:00,49.0,43.7,30.02,NE,40,2.3,2.3,82,0.00,OVC,SKC,0.00,169.0,WeatherDisplay:10.37,2013-03-19 15:39:00,
2013-03-19 08:44:00,49.5,43.6,30.02,NE,40,3.5,3.5,80,0.00,OVC,SKC,0.00,183.0,WeatherDisplay:10.37,2013-03-19 15:44:00,
2013-03-19 08:49:00,49.9,44.0,30.02,NE,40,2.3,2.3,80,0.00,OVC,SKC,0.00,178.0,WeatherDisplay:10.37,2013-03-19 15:49:00,
2013-03-19 08:54:00,50.4,44.5,30.02,NE,40,1.2,1.2,80,0.00,OVC,SKC,0.00,192.0,WeatherDisplay:10.37,2013-03-19 15:54:00,
2013-03-19 08:59:00,50.9,44.6,30.02,NE,40,2.3,0.0,79,0.00,OVC,SKC,0.00,225.0,WeatherDisplay:10.37,2013-03-19 15:59:00,
2013-03-19 09:04:00,51.5,45.5,30.02,NE,40,0.0,0.0,80,0.00,OVC,SKC,0.00,257.0,WeatherDisplay:10.37,2013-03-19 16:04:00,
2013-03-19 09:09:00,52.5,46.5,30.03,NE,40,0.0,0.0,80,0.00,OVC,SKC,0.00,267.0,WeatherDisplay:10.37,2013-03-19 16:09:00,
2013-03-19 09:14:00,52.8,46.1,30.03,NE,55,2.3,2.3,78,0.00,OVC,SKC,0.00,302.0,WeatherDisplay:10.37,2013-03-19 16:14:00,
2013-03-19 09:19:00,52.8,46.1,30.03,ESE,119,2.3,2.3,78,0.00,OVC,SKC,0.00,334.0,WeatherDisplay:10.37,2013-03-19 16:19:00,
2013-03-19 09:24:00,53.2,46.5,30.03,ESE,123,3.5,3.5,78,0.00,OVC,SKC,0.00,357.0,WeatherDisplay:10.37,2013-03-19 16:24:00,
2013-03-19 09:29:00,53.4,46.7,30.03,ESE,123,2.3,2.3,78,0.00,OVC,SKC,0.00,374.0,WeatherDisplay:10.37,2013-03-19 16:29:00,
2013-03-19 09:34:00,53.7,47.0,30.03,SE,125,2.3,2.3,78,0.00,OVC,SKC,0.00,380.0,WeatherDisplay:10.37,2013-03-19 16:34:00,
2013-03-19 09:39:00,53.6,46.6,30.03,SE,137,3.5,3.5,77,0.00,OVC,SKC,0.00,383.0,WeatherDisplay:10.37,2013-03-19 16:39:00,
2013-03-19 09:44:00,53.3,46.6,30.03,SE,142,3.5,3.5,78,0.00,OVC,SKC,0.00,362.0,WeatherDisplay:10.37,2013-03-19 16:44:00,
2013-03-19 09:49:00,53.5,47.1,30.03,SSE,157,2.3,2.3,79,0.00,OVC,SKC,0.00,394.0,WeatherDisplay:10.37,2013-03-19 16:49:00,
2013-03-19 09:54:00,53.9,47.5,30.04,SSE,157,3.5,3.5,79,0.00,OVC,SKC,0.00,446.0,WeatherDisplay:10.37,2013-03-19 16:54:00,
2013-03-19 09:59:00,54.5,47.4,30.04,SSE,154,5.0,6.0,77,0.00,OVC,SKC,0.00,439.0,WeatherDisplay:10.37,2013-03-19 16:59:00,
2013-03-19 10:04:00,54.0,47.0,30.04,SSE,157,5.8,5.8,77,0.00,OVC,SKC,0.00,462.0,WeatherDisplay:10.37,2013-03-19 17:04:00,
2013-03-19 10:09:00,54.1,47.0,30.04,SSE,151,5.0,5.0,77,0.00,OVC,SKC,0.00,489.0,WeatherDisplay:10.37,2013-03-19 17:09:00,
2013-03-19 10:14:00,53.9,46.9,30.04,SSE,153,4.6,4.6,77,0.00,OVC,SKC,0.00,454.0,WeatherDisplay:10.37,2013-03-19 17:14:00,
2013-03-19 10:19:00,53.6,47.2,30.04,SSE,155,4.6,4.6,79,0.00,OVC,SKC,0.00,485.0,WeatherDisplay:10.37,2013-03-19 17:19:00,
2013-03-19 10:24:00,53.9,47.6,30.04,SSE,152,0.0,4.0,79,0.00,OVC,SKC,0.00,545.0,WeatherDisplay:10.37,2013-03-19 17:24:00,
2013-03-19 10:29:00,54.6,47.5,30.04,SE,125,5.8,5.8,77,0.00,OVC,SKC,0.00,510.0,WeatherDisplay:10.37,2013-03-19 17:29:00,
2013-03-19 10:34:00,54.1,47.0,30.04,ESE,118,4.6,4.6,77,0.00,OVC,SKC,0.00,541.0,WeatherDisplay:10.37,2013-03-19 17:34:00,
2013-03-19 10:39:00,54.1,47.4,30.04,SE,137,5.0,5.0,78,0.00,OVC,SKC,0.00,554.0,WeatherDisplay:10.37,2013-03-19 17:39:00,
2013-03-19 10:44:00,54.3,47.2,30.04,SE,127,3.0,5.0,77,0.00,OVC,SKC,0.00,575.0,WeatherDisplay:10.37,2013-03-19 17:44:00,
2013-03-19 10:49:00,54.8,47.7,30.04,SE,138,5.8,5.8,77,0.00,OVC,SKC,0.00,606.0,WeatherDisplay:10.37,2013-03-19 17:49:00,
2013-03-19 10:54:00,55.6,48.1,30.04,SE,132,1.0,5.0,76,0.00,OVC,SKC,0.00,554.0,WeatherDisplay:10.37,2013-03-19 17:54:00,
2013-03-19 10:59:00,55.9,47.4,30.04,SE,132,1.0,5.0,73,0.00,OVC,SKC,0.00,559.0,WeatherDisplay:10.37,2013-03-19 17:59:00,
2013-03-19 11:04:00,56.5,47.2,30.04,SE,131,3.0,5.0,71,0.00,OVC,SKC,0.00,510.0,WeatherDisplay:10.37,2013-03-19 18:04:00,
2013-03-19 11:09:00,55.9,46.3,30.03,SE,130,3.5,3.5,70,0.00,OVC,SKC,0.00,512.0,WeatherDisplay:10.37,2013-03-19 18:09:00,
2013-03-19 11:14:00,55.8,47.3,30.03,SE,128,4.0,4.0,73,0.00,OVC,SKC,0.00,520.0,WeatherDisplay:10.37,2013-03-19 18:14:00,
2013-03-19 11:19:00,55.5,45.5,30.03,SE,134,5.0,5.0,69,0.00,OVC,SKC,0.00,591.0,WeatherDisplay:10.37,2013-03-19 18:19:00,
2013-03-19 11:24:00,55.9,47.0,30.04,SSE,148,4.6,4.6,72,0.00,OVC,SKC,0.00,587.0,WeatherDisplay:10.37,2013-03-19 18:24:00,
2013-03-19 11:29:00,56.2,46.9,30.04,South,172,6.9,6.9,71,0.00,OVC,SKC,0.00,628.0,WeatherDisplay:10.37,2013-03-19 18:29:00,
2013-03-19 11:34:00,56.6,46.2,30.04,South,187,3.0,7.0,68,0.00,OVC,SKC,0.00,563.0,WeatherDisplay:10.37,2013-03-19 18:34:00,
2013-03-19 11:39:00,56.5,46.4,30.04,WSW,240,4.6,4.6,69,0.00,OVC,SKC,0.00,545.0,WeatherDisplay:10.37,2013-03-19 18:39:00,
2013-03-19 11:44:00,56.7,47.0,30.04,South,190,5.8,5.8,70,0.00,OVC,SKC,0.00,682.0,WeatherDisplay:10.37,2013-03-19 18:44:00,
2013-03-19 11:49:00,56.7,47.0,30.04,SSW,210,3.5,3.5,70,0.00,OVC,SKC,0.00,773.0,WeatherDisplay:10.37,2013-03-19 18:49:00,
2013-03-19 11:54:00,57.3,45.6,30.03,SW,221,3.0,6.0,65,0.00,OVC,SKC,0.00,768.0,WeatherDisplay:10.37,2013-03-19 18:54:00,
2013-03-19 11:59:00,57.4,45.3,30.03,WSW,256,2.0,5.0,64,0.00,OVC,SKC,0.00,758.0,WeatherDisplay:10.37,2013-03-19 18:59:00,
2013-03-19 12:04:00,57.6,45.5,30.03,WSW,255,3.0,6.0,64,0.00,OVC,SKC,0.00,780.0,WeatherDisplay:10.37,2013-03-19 19:04:00,
2013-03-19 12:09:00,57.6,45.5,30.03,WSW,246,6.0,6.0,64,0.00,OVC,SKC,0.00,789.0,WeatherDisplay:10.37,2013-03-19 19:09:00,
2013-03-19 12:14:00,57.3,47.2,30.03,SW,230,6.0,10.0,69,0.00,OVC,SKC,0.00,807.0,WeatherDisplay:10.37,2013-03-19 19:14:00,
2013-03-19 12:19:00,57.3,48.4,30.03,SW,226,7.0,12.0,72,0.00,OVC,SKC,0.00,789.0,WeatherDisplay:10.37,2013-03-19 19:19:00,
2013-03-19 12:24:00,57.3,49.4,30.04,SW,217,5.8,5.8,75,0.00,OVC,SKC,0.00,789.0,WeatherDisplay:10.37,2013-03-19 19:24:00,
2013-03-19 12:29:00,57.3,48.0,30.04,SW,229,10.4,10.4,71,0.00,OVC,SKC,0.00,791.0,WeatherDisplay:10.37,2013-03-19 19:29:00,
2013-03-19 12:34:00,57.4,46.9,30.04,SW,229,9.2,9.2,68,0.00,OVC,SKC,0.00,800.0,WeatherDisplay:10.37,2013-03-19 19:34:00,
2013-03-19 12:39:00,57.6,46.3,30.03,SW,233,5.0,7.0,66,0.00,OVC,SKC,0.00,817.0,WeatherDisplay:10.37,2013-03-19 19:39:00,
2013-03-19 12:44:00,58.3,46.6,30.03,WSW,240,6.0,6.0,65,0.00,OVC,SKC,0.00,434.0,WeatherDisplay:10.37,2013-03-19 19:44:00,
2013-03-19 12:49:00,58.5,46.0,30.03,SW,227,2.0,7.0,63,0.00,OVC,SKC,0.00,691.0,WeatherDisplay:10.37,2013-03-19 19:49:00,
2013-03-19 12:55:00,58.5,45.5,30.03,SW,222,7.0,7.0,62,0.00,OVC,SKC,0.00,833.0,WeatherDisplay:10.37,2013-03-19 19:55:00,
2013-03-19 13:00:00,59.0,45.1,30.03,SW,232,6.9,6.9,60,0.00,OVC,SKC,0.00,786.0,WeatherDisplay:10.37,2013-03-19 20:00:00,
2013-03-19 13:05:00,58.8,44.5,30.03,SW,227,5.8,5.8,59,0.00,OVC,SKC,0.00,795.0,WeatherDisplay:10.37,2013-03-19 20:05:00,
2013-03-19 13:10:00,59.6,44.3,30.02,SW,215,6.0,6.0,57,0.00,OVC,SKC,0.00,621.0,WeatherDisplay:10.37,2013-03-19 20:10:00,
2013-03-19 13:15:00,59.9,45.1,30.02,SSW,213,4.6,4.6,58,0.00,OVC,SKC,0.00,510.0,WeatherDisplay:10.37,2013-03-19 20:15:00,
2013-03-19 13:20:00,59.5,44.7,30.02,SW,220,7.0,7.0,58,0.00,OVC,SKC,0.00,517.0,WeatherDisplay:10.37,2013-03-19 20:20:00,
2013-03-19 13:25:00,59.3,45.4,30.02,SW,224,6.9,6.9,60,0.00,OVC,SKC,0.00,357.0,WeatherDisplay:10.37,2013-03-19 20:25:00,
2013-03-19 13:30:00,58.7,43.5,30.02,SW,225,8.1,8.1,57,0.00,OVC,SKC,0.00,320.0,WeatherDisplay:10.37,2013-03-19 20:30:00,
2013-03-19 13:35:00,58.9,45.9,30.02,WSW,245,8.1,8.1,62,0.00,OVC,SKC,0.00,719.0,WeatherDisplay:10.37,2013-03-19 20:35:00,
2013-03-19 13:40:00,58.9,45.5,30.02,SW,229,9.2,9.2,61,0.00,OVC,SKC,0.00,835.0,WeatherDisplay:10.37,2013-03-19 20:40:00,
2013-03-19 13:45:00,59.3,46.7,30.02,SW,234,10.4,10.4,63,0.00,OVC,SKC,0.00,847.0,WeatherDisplay:10.37,2013-03-19 20:45:00,
2013-03-19 13:50:00,59.3,47.1,30.02,WSW,250,7.0,7.0,64,0.00,OVC,SKC,0.00,828.0,WeatherDisplay:10.37,2013-03-19 20:50:00,
2013-03-19 13:55:00,59.1,46.5,30.02,WSW,257,10.4,10.4,63,0.00,OVC,SKC,0.00,844.0,WeatherDisplay:10.37,2013-03-19 20:55:00,
2013-03-19 14:00:00,59.3,47.9,30.02,SW,225,11.5,11.5,66,0.00,OVC,SKC,0.00,830.0,WeatherDisplay:10.37,2013-03-19 21:00:00,
2013-03-19 14:05:00,59.1,49.3,30.02,WSW,244,8.1,8.1,70,0.00,OVC,SKC,0.00,791.0,WeatherDisplay:10.37,2013-03-19 21:05:00,
2013-03-19 14:10:00,58.9,48.0,30.01,WSW,240,10.4,10.4,67,0.00,OVC,SKC,0.00,809.0,WeatherDisplay:10.37,2013-03-19 21:10:00,
2013-03-19 14:15:00,59.3,47.9,30.01,WSW,253,10.4,10.4,66,0.00,OVC,SKC,0.00,751.0,WeatherDisplay:10.37,2013-03-19 21:15:00,
2013-03-19 14:20:00,60.0,46.9,30.01,SW,223,10.4,10.4,62,0.00,OVC,SKC,0.00,824.0,WeatherDisplay:10.37,2013-03-19 21:20:00,
2013-03-19 14:25:00,59.7,48.3,30.01,SW,235,11.5,11.5,66,0.00,OVC,SKC,0.00,759.0,WeatherDisplay:10.37,2013-03-19 21:25:00,
2013-03-19 14:30:00,59.9,46.8,30.01,SW,217,12.7,12.7,62,0.00,OVC,SKC,0.00,770.0,WeatherDisplay:10.37,2013-03-19 21:30:00,
2013-03-19 14:35:00,59.9,45.1,30.01,SW,235,13.8,13.8,58,0.00,OVC,SKC,0.00,831.0,WeatherDisplay:10.37,2013-03-19 21:35:00,
2013-03-19 14:40:00,59.8,45.0,30.01,WSW,246,16.1,16.1,58,0.00,OVC,SKC,0.00,621.0,WeatherDisplay:10.37,2013-03-19 21:40:00,
2013-03-19 14:45:00,59.8,44.5,30.01,SSW,213,15.0,15.0,57,0.00,OVC,SKC,0.00,376.0,WeatherDisplay:10.37,2013-03-19 21:45:00,
2013-03-19 14:50:00,59.5,43.8,30.01,SW,230,13.8,13.8,56,0.00,OVC,SKC,0.00,464.0,WeatherDisplay:10.37,2013-03-19 21:50:00,
2013-03-19 14:55:00,59.0,43.8,30.01,WSW,251,13.8,13.8,57,0.00,OVC,SKC,0.00,439.0,WeatherDisplay:10.37,2013-03-19 21:55:00,
2013-03-19 15:00:00,58.7,44.4,30.01,WSW,241,11.5,11.5,59,0.00,OVC,SKC,0.00,406.0,WeatherDisplay:10.37,2013-03-19 22:00:00,
2013-03-19 15:05:00,58.4,45.8,30.01,SW,221,11.5,11.5,63,0.00,OVC,SKC,0.00,336.0,WeatherDisplay:10.37,2013-03-19 22:05:00,
2013-03-19 15:10:00,58.3,45.3,30.01,SW,231,10.0,10.0,62,0.00,OVC,SKC,0.00,313.0,WeatherDisplay:10.37,2013-03-19 22:10:00,
2013-03-19 15:15:00,58.1,46.4,30.01,SW,222,11.0,11.0,65,0.00,OVC,SKC,0.00,318.0,WeatherDisplay:10.37,2013-03-19 22:15:00,
2013-03-19 15:20:00,57.9,45.8,30.01,SW,222,11.5,11.5,64,0.00,BKN,SKC,0.00,334.0,WeatherDisplay:10.37,2013-03-19 22:20:00,
2013-03-19 15:25:00,57.5,47.0,30.00,SW,229,12.7,12.7,68,0.00,CLR,SKC,0.00,390.0,WeatherDisplay:10.37,2013-03-19 22:25:00,
2013-03-19 15:30:00,57.5,46.6,30.00,SW,234,14.0,14.0,67,0.00,CLR,SKC,0.00,471.0,WeatherDisplay:10.37,2013-03-19 22:30:00,
2013-03-19 15:35:00,57.3,48.0,30.00,South,187,13.8,13.8,71,0.00,CLR,SKC,0.00,580.0,WeatherDisplay:10.37,2013-03-19 22:35:00,
2013-03-19 15:40:00,57.0,49.2,30.01,SW,232,11.5,11.5,75,0.00,CLR,SKC,0.00,469.0,WeatherDisplay:10.37,2013-03-19 22:40:00,
2013-03-19 15:45:00,56.4,49.3,30.01,SSW,203,11.5,11.5,77,0.00,CLR,SKC,0.00,267.0,WeatherDisplay:10.37,2013-03-19 22:45:00,
2013-03-19 15:50:00,55.9,49.1,30.01,SW,223,11.5,11.5,78,0.00,CLR,SKC,0.00,279.0,WeatherDisplay:10.37,2013-03-19 22:50:00,
2013-03-19 15:55:00,55.7,49.3,30.01,WSW,245,12.7,12.7,79,0.00,CLR,SKC,0.00,241.0,WeatherDisplay:10.37,2013-03-19 22:55:00,
2013-03-19 16:00:00,55.4,49.3,30.01,SW,226,15.0,15.0,80,0.00,CLR,SKC,0.00,209.0,WeatherDisplay:10.37,2013-03-19 23:00:00,
2013-03-19 16:05:00,55.6,49.2,30.01,SW,229,13.8,13.8,79,0.00,CLR,SKC,0.00,229.0,WeatherDisplay:10.37,2013-03-19 23:05:00,
2013-03-19 16:10:00,55.8,49.4,30.01,SSW,209,11.5,11.5,79,0.00,CLR,SKC,0.00,204.0,WeatherDisplay:10.37,2013-03-19 23:10:00,
2013-03-19 16:15:00,56.0,48.9,30.01,SSW,207,15.0,15.0,77,0.00,CLR,SKC,0.00,167.0,WeatherDisplay:10.37,2013-03-19 23:15:00,
2013-03-19 16:20:00,55.6,49.5,30.01,WSW,237,15.0,15.0,80,0.00,CLR,SKC,0.00,158.0,WeatherDisplay:10.37,2013-03-19 23:20:00,
2013-03-19 16:25:00,55.4,49.7,30.01,SSW,205,13.8,13.8,81,0.00,CLR,SKC,0.00,144.0,WeatherDisplay:10.37,2013-03-19 23:25:00,
2013-03-19 16:30:00,54.9,48.8,30.01,SW,226,17.0,17.0,80,0.00,FEW,SKC,0.00,141.0,WeatherDisplay:10.37,2013-03-19 23:30:00,
2013-03-19 16:35:00,54.9,48.8,30.01,SW,227,12.7,12.7,80,0.00,SCT,SKC,0.00,118.0,WeatherDisplay:10.37,2013-03-19 23:35:00,
2013-03-19 16:40:00,55.5,48.8,30.01,SW,224,11.5,11.5,78,0.00,SCT,SKC,0.00,91.0,WeatherDisplay:10.37,2013-03-19 23:40:00,
2013-03-19 16:45:00,55.3,49.2,30.01,WSW,244,16.1,16.1,80,0.00,BKN,SKC,0.00,77.0,WeatherDisplay:10.37,2013-03-19 23:45:00,
2013-03-19 16:50:00,54.9,49.8,30.01,WSW,242,17.0,17.0,83,0.00,BKN,SKC,0.00,81.0,WeatherDisplay:10.37,2013-03-19 23:50:00,
2013-03-19 16:55:00,54.3,49.6,30.02,WSW,242,11.5,11.5,84,0.00,BKN,SKC,0.00,77.0,WeatherDisplay:10.37,2013-03-19 23:55:00,
2013-03-19 17:00:00,54.7,49.6,30.02,SW,225,8.1,8.1,83,0.00,BKN,SKC,0.00,79.0,WeatherDisplay:10.37,2013-03-20 00:00:00,
2013-03-19 17:05:00,55.0,49.3,30.02,SW,223,7.0,7.0,81,0.00,BKN,SKC,0.00,93.0,WeatherDisplay:10.37,2013-03-20 00:05:00,
2013-03-19 17:10:00,55.5,49.1,30.03,SW,225,11.5,11.5,79,0.00,BKN,SKC,0.00,91.0,WeatherDisplay:10.37,2013-03-20 00:10:00,
2013-03-19 17:15:00,56.1,47.6,30.03,SW,222,10.4,10.4,73,0.00,BKN,SKC,0.00,77.0,WeatherDisplay:10.37,2013-03-20 00:15:00,
2013-03-19 17:20:00,56.8,46.7,30.03,WSW,255,11.5,11.5,69,0.00,BKN,SKC,0.00,60.0,WeatherDisplay:10.37,2013-03-20 00:20:00,
2013-03-19 17:25:00,57.2,45.5,30.04,WSW,247,6.9,6.9,65,0.00,BKN,SKC,0.00,54.0,WeatherDisplay:10.37,2013-03-20 00:25:00,
2013-03-19 17:30:00,58.2,44.8,30.04,WSW,244,3.5,3.5,61,0.00,BKN,SKC,0.00,49.0,WeatherDisplay:10.37,2013-03-20 00:30:00,
2013-03-19 17:35:00,59.3,44.1,30.04,WSW,244,5.8,5.8,57,0.00,BKN,SKC,0.00,40.0,WeatherDisplay:10.37,2013-03-20 00:35:00,
2013-03-19 17:40:00,60.1,43.9,30.04,SW,221,5.8,5.8,55,0.00,BKN,SKC,0.00,46.0,WeatherDisplay:10.37,2013-03-20 00:40:00,
2013-03-19 17:45:00,59.5,46.0,30.04,WSW,248,6.0,6.0,61,0.00,BKN,SKC,0.00,47.0,WeatherDisplay:10.37,2013-03-20 00:45:00,
2013-03-19 17:50:00,59.1,46.5,30.04,WSW,246,3.5,3.5,63,0.00,BKN,SKC,0.00,37.0,WeatherDisplay:10.37,2013-03-20 00:50:00,
2013-03-19 17:55:00,58.9,46.3,30.04,SW,229,4.6,4.6,63,0.00,BKN,SKC,0.00,32.0,WeatherDisplay:10.37,2013-03-20 00:55:00,
2013-03-19 18:00:00,58.8,46.6,30.04,WSW,250,6.0,6.0,64,0.00,BKN,SKC,0.00,30.0,WeatherDisplay:10.37,2013-03-20 01:00:00,
2013-03-19 18:05:00,58.1,47.2,30.04,SW,233,9.2,9.2,67,0.00,BKN,SKC,0.00,30.0,WeatherDisplay:10.37,2013-03-20 01:05:00,
2013-03-19 18:10:00,56.7,46.6,30.05,WSW,245,15.0,15.0,69,0.00,BKN,SKC,0.00,28.0,WeatherDisplay:10.37,2013-03-20 01:10:00,
2013-03-19 18:15:00,56.1,46.8,30.05,WSW,246,9.2,9.2,71,0.00,OVC,SKC,0.00,25.0,WeatherDisplay:10.37,2013-03-20 01:15:00,
2013-03-19 18:20:00,55.9,47.4,30.05,WSW,246,8.1,8.1,73,0.00,OVC,SKC,0.00,21.0,WeatherDisplay:10.37,2013-03-20 01:20:00,
2013-03-19 18:25:00,55.5,47.3,30.06,WSW,238,9.2,9.2,74,0.01,RA,SKC,0.01,16.0,WeatherDisplay:10.37,2013-03-20 01:25:00,
2013-03-19 18:30:00,55.4,48.0,30.06,WSW,251,3.5,3.5,76,0.01,RA,SKC,0.01,12.0,WeatherDisplay:10.37,2013-03-20 01:30:00,
2013-03-19 18:35:00,55.1,47.7,30.06,WSW,240,11.5,11.5,76,0.01,OVC,SKC,0.02,7.0,WeatherDisplay:10.37,2013-03-20 01:35:00,
2013-03-19 18:40:00,54.9,47.5,30.07,WNW,295,9.2,9.2,76,0.02,RA,SKC,0.02,7.0,WeatherDisplay:10.37,2013-03-20 01:40:00,
2013-03-19 18:45:00,55.1,48.4,30.07,WNW,300,7.0,7.0,78,0.03,RA,SKC,0.03,5.0,WeatherDisplay:10.37,2013-03-20 01:45:00,
2013-03-19 18:50:00,55.5,49.4,30.07,NW,325,3.5,3.5,80,0.04,RA,SKC,0.04,5.0,WeatherDisplay:10.37,2013-03-20 01:50:00,
2013-03-19 18:55:00,55.2,49.8,30.07,NE,39,4.0,4.0,82,0.04,RA,SKC,0.04,0.0,WeatherDisplay:10.37,2013-03-20 01:55:00,
2013-03-19 19:00:00,55.1,50.0,30.07,NE,55,4.6,4.6,83,0.04,OVC,SKC,0.04,0.0,WeatherDisplay:10.37,2013-03-20 02:00:00,
2013-03-19 19:05:00,55.2,50.4,30.07,ENE,60,4.0,4.0,84,0.05,RA,SKC,0.05,0.0,WeatherDisplay:10.37,2013-03-20 02:05:00,
2013-03-19 19:10:00,55.1,50.7,30.06,ENE,65,4.6,4.6,85,0.05,RA,SKC,0.05,0.0,WeatherDisplay:10.37,2013-03-20 02:10:00,
2013-03-19 19:15:00,55.0,50.9,30.06,ENE,78,8.1,8.1,86,0.06,RA,SKC,0.06,0.0,WeatherDisplay:10.37,2013-03-20 02:15:00,
2013-03-19 19:20:00,54.8,51.0,30.06,ENE,66,3.5,3.5,87,0.07,RA,SKC,0.07,0.0,WeatherDisplay:10.37,2013-03-20 02:20:00,
2013-03-19 19:25:00,54.6,51.1,30.05,ENE,63,6.9,6.9,88,0.07,RA,SKC,0.08,0.0,WeatherDisplay:10.37,2013-03-20 02:25:00,
2013-03-19 19:30:00,54.5,51.0,30.05,East,80,4.6,4.6,88,0.07,RA,SKC,0.08,0.0,WeatherDisplay:10.37,2013-03-20 02:30:00,
2013-03-19 19:35:00,54.5,51.3,30.05,ENE,69,3.5,3.5,89,0.08,RA,SKC,0.09,0.0,WeatherDisplay:10.37,2013-03-20 02:35:00,
2013-03-19 19:40:00,54.4,51.2,30.04,ENE,77,2.3,2.3,89,0.08,RA,SKC,0.10,0.0,WeatherDisplay:10.37,2013-03-20 02:40:00,
2013-03-19 19:45:00,54.1,50.9,30.04,East,88,3.5,3.5,89,0.07,RA,SKC,0.10,0.0,WeatherDisplay:10.37,2013-03-20 02:45:00,
2013-03-19 19:50:00,53.8,50.3,30.04,ENE,71,6.9,6.9,88,0.06,CLR,SKC,0.10,0.0,WeatherDisplay:10.37,2013-03-20 02:50:00,
2013-03-19 19:55:00,53.8,50.6,30.04,East,96,3.5,3.5,89,0.06,CLR,SKC,0.10,0.0,WeatherDisplay:10.37,2013-03-20 02:55:00,
2013-03-19 20:00:00,53.8,50.6,30.04,ESE,104,6.9,6.9,89,0.06,CLR,SKC,0.10,0.0,WeatherDisplay:10.37,2013-03-20 03:00:00,
2013-03-19 20:05:00,53.5,50.3,30.04,East,85,8.1,8.1,89,0.05,CLR,SKC,0.11,0.0,WeatherDisplay:10.37,2013-03-20 03:05:00,
2013-03-19 20:10:00,53.2,50.0,30.03,ENE,76,11.5,11.5,89,0.06,RA,SKC,0.11,0.0,WeatherDisplay:10.37,2013-03-20 03:10:00,
2013-03-19 20:15:00,53.1,49.9,30.03,ESE,117,9.2,9.2,89,0.05,RA,SKC,0.11,0.0,WeatherDisplay:10.37,2013-03-20 03:15:00,
2013-03-19 20:20:00,53.0,49.8,30.03,ESE,114,9.2,9.2,89,0.04,,SKC,0.11,0.0,WeatherDisplay:10.37,2013-03-20 03:20:00,
2013-03-19 20:25:00,52.9,49.7,30.03,East,98,11.5,11.5,89,0.03,,SKC,0.11,0.0,WeatherDisplay:10.37,2013-03-20 03:25:00,
2013-03-19 20:30:00,52.7,49.5,30.03,East,100,11.0,11.0,89,0.03,,SKC,0.11,0.0,WeatherDisplay:10.37,2013-03-20 03:30:00,
2013-03-19 20:35:00,52.6,49.4,30.03,ESE,116,9.2,9.2,89,0.02,,SKC,0.11,0.0,WeatherDisplay:10.37,2013-03-20 03:35:00,
2013-03-19 20:40:00,52.5,49.4,30.03,ESE,109,11.5,11.5,89,0.01,,SKC,0.11,0.0,WeatherDisplay:10.37,2013-03-20 03:40:00,
2013-03-19 20:45:00,52.2,49.1,30.03,ESE,117,11.5,11.5,89,0.01,,SKC,0.11,0.0,WeatherDisplay:10.37,2013-03-20 03:45:00,
2013-03-19 20:50:00,51.8,48.4,30.03,SE,128,11.5,11.5,88,0.01,,SKC,0.11,0.0,WeatherDisplay:10.37,2013-03-20 03:50:00,
2013-03-19 20:55:00,51.8,48.4,30.03,SE,128,6.9,6.9,88,0.01,,SKC,0.11,0.0,WeatherDisplay:10.37,2013-03-20 03:55:00,
2013-03-19 21:00:00,51.8,48.4,30.03,ESE,121,4.6,4.6,88,0.01,,SKC,0.11,0.0,WeatherDisplay:10.37,2013-03-20 04:00:00,
2013-03-19 21:05:00,52.0,48.9,30.03,SE,128,5.0,5.0,89,0.01,,SKC,0.11,0.0,WeatherDisplay:10.37,2013-03-20 04:05:00,
2013-03-19 21:10:00,52.1,49.0,30.04,ESE,116,5.8,5.8,89,0.00,,SKC,0.11,0.0,WeatherDisplay:10.37,2013-03-20 04:10:00,
2013-03-19 21:15:00,52.1,49.0,30.04,SE,132,1.2,1.2,89,0.00,,SKC,0.11,0.0,WeatherDisplay:10.37,2013-03-20 04:15:00,
2013-03-19 21:20:00,52.1,49.0,30.04,SE,134,2.3,2.3,89,0.00,,SKC,0.11,0.0,WeatherDisplay:10.37,2013-03-20 04:20:00,
2013-03-19 21:25:00,52.0,48.9,30.04,SSE,153,3.5,3.5,89,0.00,,SKC,0.11,0.0,WeatherDisplay:10.37,2013-03-20 04:25:00,
2013-03-19 21:31:00,52.0,48.9,30.04,SSE,150,5.8,5.8,89,0.00,,SKC,0.11,0.0,WeatherDisplay:10.37,2013-03-20 04:31:00,
2013-03-19 21:36:00,51.9,48.8,30.04,SSE,153,4.6,4.6,89,0.00,,SKC,0.11,0.0,WeatherDisplay:10.37,2013-03-20 04:36:00,
2013-03-19 21:41:00,51.7,48.6,30.04,SSE,159,2.3,2.3,89,0.00,,SKC,0.11,0.0,WeatherDisplay:10.37,2013-03-20 04:41:00,
2013-03-19 21:46:00,51.6,48.5,30.04,SSE,156,4.0,4.0,89,0.00,,SKC,0.11,0.0,WeatherDisplay:10.37,2013-03-20 04:46:00,
2013-03-19 21:51:00,51.4,48.3,30.04,SSE,157,2.3,2.3,89,0.00,,SKC,0.11,0.0,WeatherDisplay:10.37,2013-03-20 04:51:00,
2013-03-19 21:56:00,51.3,48.2,30.04,SE,133,2.3,0.0,89,0.00,,SKC,0.11,0.0,WeatherDisplay:10.37,2013-03-20 04:56:00,
2013-03-19 22:01:00,51.3,48.2,30.04,SE,133,1.0,1.0,89,0.00,,SKC,0.11,0.0,WeatherDisplay:10.37,2013-03-20 05:01:00,
2013-03-19 22:07:00,51.4,48.3,30.04,SE,128,4.0,4.0,89,0.00,,SKC,0.11,0.0,WeatherDisplay:10.37,2013-03-20 05:07:00,
2013-03-19 22:12:00,51.4,48.3,30.03,SE,125,2.0,2.0,89,0.00,,SKC,0.11,0.0,WeatherDisplay:10.37,2013-03-20 05:12:00,
2013-03-19 22:17:00,51.5,48.4,30.03,SE,125,4.0,4.0,89,0.00,,SKC,0.11,0.0,WeatherDisplay:10.37,2013-03-20 05:17:00,
2013-03-19 22:22:00,51.5,48.7,30.02,ESE,123,4.0,4.0,90,0.00,,SKC,0.11,0.0,WeatherDisplay:10.37,2013-03-20 05:22:00,
2013-03-19 22:27:00,51.6,48.8,30.02,North,5,5.8,5.8,90,0.00,,SKC,0.11,0.0,WeatherDisplay:10.37,2013-03-20 05:27:00,
2013-03-19 22:32:00,51.7,48.9,30.02,North,5,5.8,5.8,90,0.00,,SKC,0.11,0.0,WeatherDisplay:10.37,2013-03-20 05:32:00,
2013-03-19 22:37:00,51.7,48.9,30.02,NNE,20,6.0,6.0,90,0.00,,SKC,0.11,0.0,WeatherDisplay:10.37,2013-03-20 05:37:00,
2013-03-19 22:42:00,51.7,48.9,30.02,North,349,1.2,1.2,90,0.00,,SKC,0.11,0.0,WeatherDisplay:10.37,2013-03-20 05:42:00,
2013-03-19 22:47:00,51.8,49.0,30.02,North,349,2.3,2.3,90,0.00,,SKC,0.11,0.0,WeatherDisplay:10.37,2013-03-20 05:47:00,
2013-03-19 22:52:00,51.9,49.1,30.01,North,349,1.2,1.2,90,0.00,,SKC,0.11,0.0,WeatherDisplay:10.37,2013-03-20 05:52:00,
2013-03-19 22:58:00,51.9,49.1,30.01,North,349,0.0,0.0,90,0.00,,SKC,0.11,0.0,WeatherDisplay:10.37,2013-03-20 05:58:00,
2013-03-19 23:03:00,52.0,49.5,30.01,North,349,1.2,1.2,91,0.00,,SKC,0.11,0.0,WeatherDisplay:10.37,2013-03-20 06:03:00,
2013-03-19 23:08:00,52.0,49.5,30.01,North,349,1.2,1.2,91,0.00,,SKC,0.11,0.0,WeatherDisplay:10.37,2013-03-20 06:08:00,
2013-03-19 23:13:00,52.1,49.6,30.01,North,349,0.0,0.0,91,0.00,,SKC,0.11,0.0,WeatherDisplay:10.37,2013-03-20 06:13:00,
2013-03-19 23:18:00,52.2,49.7,30.01,North,349,3.5,3.5,91,0.00,,SKC,0.11,0.0,WeatherDisplay:10.37,2013-03-20 06:18:00,
2013-03-19 23:23:00,52.3,49.8,30.01,North,350,2.3,2.3,91,0.00,,SKC,0.11,0.0,WeatherDisplay:10.37,2013-03-20 06:23:00,
2013-03-19 23:28:00,52.4,49.8,30.01,North,350,2.3,2.3,91,0.00,,SKC,0.11,0.0,WeatherDisplay:10.37,2013-03-20 06:28:00,
2013-03-19 23:33:00,52.4,49.8,30.01,North,350,0.0,0.0,91,0.00,,SKC,0.11,0.0,WeatherDisplay:10.37,2013-03-20 06:33:00,
2013-03-19 23:38:00,52.5,49.9,30.01,North,350,2.0,2.0,91,0.00,,SKC,0.11,0.0,WeatherDisplay:10.37,2013-03-20 06:38:00,
2013-03-19 23:43:00,52.5,49.9,30.01,North,350,1.2,1.2,91,0.00,,SKC,0.11,0.0,WeatherDisplay:10.37,2013-03-20 06:43:00,
2013-03-19 23:48:00,52.5,49.9,30.01,North,350,2.3,2.3,91,0.00,,SKC,0.11,0.0,WeatherDisplay:10.37,2013-03-20 06:48:00,
2013-03-19 23:53:00,52.6,50.0,30.01,North,350,2.3,2.3,91,0.00,,SKC,0.11,0.0,WeatherDisplay:10.37,2013-03-20 06:53:00,
2013-03-19 23:58:00,52.6,50.0,30.01,North,350,2.3,2.3,91,0.00,,SKC,0.11,0.0,WeatherDisplay:10.37,2013-03-20 06:58:00,